sensor_id;sensor_type;location;lat;lon;timestamp;temperature;humidity
28761;DHT22;15917;50.014;8.352;2023-04-26T00:00:42;7.20;99.90
28761;DHT22;15917;50.014;8.352;2023-04-26T00:03:07;7.20;99.90
28761;DHT22;15917;50.014;8.352;2023-04-26T00:05:33;7.20;99.90
28761;DHT22;15917;50.014;8.352;2023-04-26T00:08:00;7.10;99.90
28761;DHT22;15917;50.014;8.352;2023-04-26T00:10:25;7.10;99.90
28761;DHT22;15917;50.014;8.352;2023-04-26T00:12:51;7.00;99.90
28761;DHT22;15917;50.014;8.352;2023-04-26T00:15:17;7.10;99.90
28761;DHT22;15917;50.014;8.352;2023-04-26T00:17:42;7.00;99.90
28761;DHT22;15917;50.014;8.352;2023-04-26T00:20:10;6.90;99.90
28761;DHT22;15917;50.014;8.352;2023-04-26T00:22:37;6.90;99.90
28761;DHT22;15917;50.014;8.352;2023-04-26T00:25:03;6.80;99.90
28761;DHT22;15917;50.014;8.352;2023-04-26T00:27:29;6.80;99.90
28761;DHT22;15917;50.014;8.352;2023-04-26T00:29:54;6.80;99.90
28761;DHT22;15917;50.014;8.352;2023-04-26T00:32:20;6.80;99.90
28761;DHT22;15917;50.014;8.352;2023-04-26T00:34:46;6.70;99.90
28761;DHT22;15917;50.014;8.352;2023-04-26T00:37:12;6.70;99.90
28761;DHT22;15917;50.014;8.352;2023-04-26T00:39:38;6.70;99.90
28761;DHT22;15917;50.014;8.352;2023-04-26T00:42:03;6.70;99.90
28761;DHT22;15917;50.014;8.352;2023-04-26T00:44:29;6.70;99.90
28761;DHT22;15917;50.014;8.352;2023-04-26T00:46:55;6.60;99.90
28761;DHT22;15917;50.014;8.352;2023-04-26T00:49:23;6.60;99.90
28761;DHT22;15917;50.014;8.352;2023-04-26T00:51:50;6.60;99.90
28761;DHT22;15917;50.014;8.352;2023-04-26T00:54:16;6.60;99.90
28761;DHT22;15917;50.014;8.352;2023-04-26T00:56:43;6.60;99.90
28761;DHT22;15917;50.014;8.352;2023-04-26T00:59:10;6.60;99.90
28761;DHT22;15917;50.014;8.352;2023-04-26T01:01:36;6.60;99.90
28761;DHT22;15917;50.014;8.352;2023-04-26T01:04:02;6.60;99.90
28761;DHT22;15917;50.014;8.352;2023-04-26T01:06:33;6.60;99.90
28761;DHT22;15917;50.014;8.352;2023-04-26T01:09:03;6.60;99.90
28761;DHT22;15917;50.014;8.352;2023-04-26T01:11:32;6.60;99.90
28761;DHT22;15917;50.014;8.352;2023-04-26T01:13:59;6.60;99.90
28761;DHT22;15917;50.014;8.352;2023-04-26T01:16:25;6.60;99.90
28761;DHT22;15917;50.014;8.352;2023-04-26T01:18:53;6.60;99.90
28761;DHT22;15917;50.014;8.352;2023-04-26T01:21:19;6.60;99.90
28761;DHT22;15917;50.014;8.352;2023-04-26T01:23:47;6.50;99.90
28761;DHT22;15917;50.014;8.352;2023-04-26T01:26:12;6.50;99.90
28761;DHT22;15917;50.014;8.352;2023-04-26T01:28:38;6.50;99.90
28761;DHT22;15917;50.014;8.352;2023-04-26T01:31:04;6.40;99.90
28761;DHT22;15917;50.014;8.352;2023-04-26T01:33:29;6.40;99.90
28761;DHT22;15917;50.014;8.352;2023-04-26T01:35:55;6.30;99.90
28761;DHT22;15917;50.014;8.352;2023-04-26T01:38:21;6.40;99.90
28761;DHT22;15917;50.014;8.352;2023-04-26T01:40:47;6.30;99.90
28761;DHT22;15917;50.014;8.352;2023-04-26T01:43:12;6.30;99.90
28761;DHT22;15917;50.014;8.352;2023-04-26T01:45:39;6.30;99.90
28761;DHT22;15917;50.014;8.352;2023-04-26T01:48:24;6.30;99.90
28761;DHT22;15917;50.014;8.352;2023-04-26T01:50:49;6.30;99.90
28761;DHT22;15917;50.014;8.352;2023-04-26T01:53:15;6.30;99.90
28761;DHT22;15917;50.014;8.352;2023-04-26T01:55:41;6.40;99.90
28761;DHT22;15917;50.014;8.352;2023-04-26T01:58:08;6.30;99.90
28761;DHT22;15917;50.014;8.352;2023-04-26T02:00:33;6.30;99.90
28761;DHT22;15917;50.014;8.352;2023-04-26T02:02:59;6.30;99.90
28761;DHT22;15917;50.014;8.352;2023-04-26T02:05:25;6.30;99.90
28761;DHT22;15917;50.014;8.352;2023-04-26T02:07:51;6.20;99.90
28761;DHT22;15917;50.014;8.352;2023-04-26T02:10:16;6.20;99.90
28761;DHT22;15917;50.014;8.352;2023-04-26T02:12:43;6.30;99.90
28761;DHT22;15917;50.014;8.352;2023-04-26T02:15:09;6.20;99.90
28761;DHT22;15917;50.014;8.352;2023-04-26T02:17:35;6.20;99.90
28761;DHT22;15917;50.014;8.352;2023-04-26T02:20:02;6.20;99.90
28761;DHT22;15917;50.014;8.352;2023-04-26T02:22:28;6.20;99.90
28761;DHT22;15917;50.014;8.352;2023-04-26T02:24:54;6.20;99.90
28761;DHT22;15917;50.014;8.352;2023-04-26T02:27:25;6.20;99.90
28761;DHT22;15917;50.014;8.352;2023-04-26T02:29:53;6.10;99.90
28761;DHT22;15917;50.014;8.352;2023-04-26T02:32:18;6.10;99.90
28761;DHT22;15917;50.014;8.352;2023-04-26T02:34:44;6.00;99.90
28761;DHT22;15917;50.014;8.352;2023-04-26T02:37:10;6.00;99.90
28761;DHT22;15917;50.014;8.352;2023-04-26T02:39:35;6.00;99.90
28761;DHT22;15917;50.014;8.352;2023-04-26T02:42:01;5.90;99.90
28761;DHT22;15917;50.014;8.352;2023-04-26T02:44:30;5.90;99.90
28761;DHT22;15917;50.014;8.352;2023-04-26T02:46:56;5.90;99.90
28761;DHT22;15917;50.014;8.352;2023-04-26T02:49:22;5.80;99.90
28761;DHT22;15917;50.014;8.352;2023-04-26T02:51:47;5.80;99.90
28761;DHT22;15917;50.014;8.352;2023-04-26T02:54:13;5.70;99.90
28761;DHT22;15917;50.014;8.352;2023-04-26T02:56:38;5.80;99.90
28761;DHT22;15917;50.014;8.352;2023-04-26T02:59:04;5.80;99.90
28761;DHT22;15917;50.014;8.352;2023-04-26T03:01:30;5.80;99.90
28761;DHT22;15917;50.014;8.352;2023-04-26T03:03:56;5.70;99.90
28761;DHT22;15917;50.014;8.352;2023-04-26T03:06:23;5.70;99.90
28761;DHT22;15917;50.014;8.352;2023-04-26T03:08:48;5.70;99.90
28761;DHT22;15917;50.014;8.352;2023-04-26T03:11:14;5.70;99.90
28761;DHT22;15917;50.014;8.352;2023-04-26T03:13:40;5.60;99.90
28761;DHT22;15917;50.014;8.352;2023-04-26T03:16:07;5.50;99.90
28761;DHT22;15917;50.014;8.352;2023-04-26T03:18:33;5.40;99.90
28761;DHT22;15917;50.014;8.352;2023-04-26T03:20:59;5.40;99.90
28761;DHT22;15917;50.014;8.352;2023-04-26T03:23:25;5.30;99.90
28761;DHT22;15917;50.014;8.352;2023-04-26T03:25:52;5.30;99.90
28761;DHT22;15917;50.014;8.352;2023-04-26T03:28:18;5.30;99.90
28761;DHT22;15917;50.014;8.352;2023-04-26T03:30:43;5.30;99.90
28761;DHT22;15917;50.014;8.352;2023-04-26T03:33:09;5.30;99.90
28761;DHT22;15917;50.014;8.352;2023-04-26T03:35:34;5.30;99.90
28761;DHT22;15917;50.014;8.352;2023-04-26T03:38:01;5.30;99.90
28761;DHT22;15917;50.014;8.352;2023-04-26T03:40:27;5.30;99.90
28761;DHT22;15917;50.014;8.352;2023-04-26T03:42:52;5.40;99.90
28761;DHT22;15917;50.014;8.352;2023-04-26T03:45:20;5.40;99.90
28761;DHT22;15917;50.014;8.352;2023-04-26T03:47:45;5.40;99.90
28761;DHT22;15917;50.014;8.352;2023-04-26T03:50:11;5.40;99.90
28761;DHT22;15917;50.014;8.352;2023-04-26T03:52:37;5.40;99.90
28761;DHT22;15917;50.014;8.352;2023-04-26T03:55:04;5.50;99.90
28761;DHT22;15917;50.014;8.352;2023-04-26T03:57:30;5.40;99.90
28761;DHT22;15917;50.014;8.352;2023-04-26T03:59:55;5.30;99.90
28761;DHT22;15917;50.014;8.352;2023-04-26T04:02:21;5.20;99.90
28761;DHT22;15917;50.014;8.352;2023-04-26T04:04:46;5.20;99.90
28761;DHT22;15917;50.014;8.352;2023-04-26T04:07:13;5.10;99.90
28761;DHT22;15917;50.014;8.352;2023-04-26T04:09:39;5.10;99.90
28761;DHT22;15917;50.014;8.352;2023-04-26T04:12:05;5.10;99.90
28761;DHT22;15917;50.014;8.352;2023-04-26T04:14:31;5.10;99.90
28761;DHT22;15917;50.014;8.352;2023-04-26T04:16:57;5.20;99.90
28761;DHT22;15917;50.014;8.352;2023-04-26T04:19:24;5.10;99.90
28761;DHT22;15917;50.014;8.352;2023-04-26T04:21:49;5.10;99.90
28761;DHT22;15917;50.014;8.352;2023-04-26T04:24:17;5.10;99.90
28761;DHT22;15917;50.014;8.352;2023-04-26T04:26:44;5.10;99.90
28761;DHT22;15917;50.014;8.352;2023-04-26T04:29:11;5.10;99.90
28761;DHT22;15917;50.014;8.352;2023-04-26T04:31:37;5.10;99.90
28761;DHT22;15917;50.014;8.352;2023-04-26T04:34:04;5.10;99.90
28761;DHT22;15917;50.014;8.352;2023-04-26T04:36:30;5.10;99.90
28761;DHT22;15917;50.014;8.352;2023-04-26T04:38:57;5.10;99.90
28761;DHT22;15917;50.014;8.352;2023-04-26T04:41:22;5.10;99.90
28761;DHT22;15917;50.014;8.352;2023-04-26T04:43:49;5.10;99.90
28761;DHT22;15917;50.014;8.352;2023-04-26T04:46:15;5.10;99.90
28761;DHT22;15917;50.014;8.352;2023-04-26T04:48:41;5.20;99.90
28761;DHT22;15917;50.014;8.352;2023-04-26T04:51:08;5.20;99.90
28761;DHT22;15917;50.014;8.352;2023-04-26T04:53:34;5.30;99.90
28761;DHT22;15917;50.014;8.352;2023-04-26T04:56:00;5.40;99.90
28761;DHT22;15917;50.014;8.352;2023-04-26T04:58:26;5.40;99.90
28761;DHT22;15917;50.014;8.352;2023-04-26T05:00:52;5.40;99.90
28761;DHT22;15917;50.014;8.352;2023-04-26T05:03:27;5.50;99.90
28761;DHT22;15917;50.014;8.352;2023-04-26T05:05:53;5.60;99.90
28761;DHT22;15917;50.014;8.352;2023-04-26T05:08:18;5.80;99.90
28761;DHT22;15917;50.014;8.352;2023-04-26T05:10:44;5.90;99.90
28761;DHT22;15917;50.014;8.352;2023-04-26T05:13:10;6.00;99.90
28761;DHT22;15917;50.014;8.352;2023-04-26T05:15:37;6.10;99.90
28761;DHT22;15917;50.014;8.352;2023-04-26T05:18:03;6.20;99.90
28761;DHT22;15917;50.014;8.352;2023-04-26T05:20:28;6.30;99.90
28761;DHT22;15917;50.014;8.352;2023-04-26T05:22:55;6.40;99.90
28761;DHT22;15917;50.014;8.352;2023-04-26T05:25:21;6.40;99.90
28761;DHT22;15917;50.014;8.352;2023-04-26T05:27:48;6.40;99.90
28761;DHT22;15917;50.014;8.352;2023-04-26T05:30:36;6.30;99.90
28761;DHT22;15917;50.014;8.352;2023-04-26T05:33:25;6.40;99.90
28761;DHT22;15917;50.014;8.352;2023-04-26T05:35:55;6.50;99.90
28761;DHT22;15917;50.014;8.352;2023-04-26T05:38:23;6.80;99.90
28761;DHT22;15917;50.014;8.352;2023-04-26T05:40:49;6.90;99.90
28761;DHT22;15917;50.014;8.352;2023-04-26T05:43:15;6.90;99.90
28761;DHT22;15917;50.014;8.352;2023-04-26T05:45:50;6.70;99.90
28761;DHT22;15917;50.014;8.352;2023-04-26T05:48:16;6.70;99.90
28761;DHT22;15917;50.014;8.352;2023-04-26T05:50:42;6.60;99.90
28761;DHT22;15917;50.014;8.352;2023-04-26T05:53:08;6.60;99.90
28761;DHT22;15917;50.014;8.352;2023-04-26T05:55:34;6.50;99.90
28761;DHT22;15917;50.014;8.352;2023-04-26T05:57:59;6.50;99.90
28761;DHT22;15917;50.014;8.352;2023-04-26T06:00:25;6.60;99.90
28761;DHT22;15917;50.014;8.352;2023-04-26T06:02:51;6.70;99.90
28761;DHT22;15917;50.014;8.352;2023-04-26T06:05:17;6.70;99.90
28761;DHT22;15917;50.014;8.352;2023-04-26T06:07:43;6.80;99.90
28761;DHT22;15917;50.014;8.352;2023-04-26T06:10:09;6.90;99.90
28761;DHT22;15917;50.014;8.352;2023-04-26T06:12:35;6.90;99.90
28761;DHT22;15917;50.014;8.352;2023-04-26T06:15:00;6.90;99.90
28761;DHT22;15917;50.014;8.352;2023-04-26T06:17:28;7.00;99.90
28761;DHT22;15917;50.014;8.352;2023-04-26T06:19:54;7.10;99.90
28761;DHT22;15917;50.014;8.352;2023-04-26T06:22:19;7.20;99.90
28761;DHT22;15917;50.014;8.352;2023-04-26T06:24:45;7.30;99.90
28761;DHT22;15917;50.014;8.352;2023-04-26T06:27:11;7.30;99.90
28761;DHT22;15917;50.014;8.352;2023-04-26T06:29:39;7.40;99.90
28761;DHT22;15917;50.014;8.352;2023-04-26T06:32:06;7.50;99.90
28761;DHT22;15917;50.014;8.352;2023-04-26T06:34:32;7.50;99.90
28761;DHT22;15917;50.014;8.352;2023-04-26T06:36:58;7.60;99.90
28761;DHT22;15917;50.014;8.352;2023-04-26T06:39:25;7.60;99.90
28761;DHT22;15917;50.014;8.352;2023-04-26T06:41:51;7.70;99.90
28761;DHT22;15917;50.014;8.352;2023-04-26T06:44:24;7.70;99.90
28761;DHT22;15917;50.014;8.352;2023-04-26T06:46:53;7.90;99.90
28761;DHT22;15917;50.014;8.352;2023-04-26T06:49:19;8.00;99.90
28761;DHT22;15917;50.014;8.352;2023-04-26T06:51:45;8.10;99.90
28761;DHT22;15917;50.014;8.352;2023-04-26T06:54:11;8.30;99.90
28761;DHT22;15917;50.014;8.352;2023-04-26T06:56:37;8.40;99.90
28761;DHT22;15917;50.014;8.352;2023-04-26T06:59:04;8.50;99.90
28761;DHT22;15917;50.014;8.352;2023-04-26T07:01:31;8.60;99.90
28761;DHT22;15917;50.014;8.352;2023-04-26T07:04:01;8.60;99.90
28761;DHT22;15917;50.014;8.352;2023-04-26T07:06:28;8.70;99.90
28761;DHT22;15917;50.014;8.352;2023-04-26T07:08:54;8.80;99.90
28761;DHT22;15917;50.014;8.352;2023-04-26T07:11:20;8.90;99.90
28761;DHT22;15917;50.014;8.352;2023-04-26T07:13:46;8.90;99.90
28761;DHT22;15917;50.014;8.352;2023-04-26T07:16:11;9.10;99.90
28761;DHT22;15917;50.014;8.352;2023-04-26T07:18:38;10.30;99.90
28761;DHT22;15917;50.014;8.352;2023-04-26T07:21:04;10.90;99.90
28761;DHT22;15917;50.014;8.352;2023-04-26T07:23:31;10.50;99.90
28761;DHT22;15917;50.014;8.352;2023-04-26T07:25:56;10.30;99.90
28761;DHT22;15917;50.014;8.352;2023-04-26T07:28:22;10.00;99.90
28761;DHT22;15917;50.014;8.352;2023-04-26T07:30:47;9.90;99.90
28761;DHT22;15917;50.014;8.352;2023-04-26T07:33:13;9.80;99.90
28761;DHT22;15917;50.014;8.352;2023-04-26T07:35:38;9.70;99.90
28761;DHT22;15917;50.014;8.352;2023-04-26T07:38:04;9.50;99.90
28761;DHT22;15917;50.014;8.352;2023-04-26T07:40:30;9.50;99.90
28761;DHT22;15917;50.014;8.352;2023-04-26T07:42:56;9.60;99.90
28761;DHT22;15917;50.014;8.352;2023-04-26T07:45:21;9.60;99.90
28761;DHT22;15917;50.014;8.352;2023-04-26T07:47:47;9.70;99.90
28761;DHT22;15917;50.014;8.352;2023-04-26T07:50:13;9.90;99.90
28761;DHT22;15917;50.014;8.352;2023-04-26T07:52:39;10.00;99.90
28761;DHT22;15917;50.014;8.352;2023-04-26T07:55:05;10.20;99.90
28761;DHT22;15917;50.014;8.352;2023-04-26T07:57:31;10.20;99.90
28761;DHT22;15917;50.014;8.352;2023-04-26T07:59:57;10.30;99.90
28761;DHT22;15917;50.014;8.352;2023-04-26T08:02:22;10.40;99.90
28761;DHT22;15917;50.014;8.352;2023-04-26T08:04:49;10.50;99.90
28761;DHT22;15917;50.014;8.352;2023-04-26T08:07:17;10.60;99.90
28761;DHT22;15917;50.014;8.352;2023-04-26T08:09:43;10.70;99.90
28761;DHT22;15917;50.014;8.352;2023-04-26T08:12:10;10.70;99.90
28761;DHT22;15917;50.014;8.352;2023-04-26T08:14:36;10.80;99.90
28761;DHT22;15917;50.014;8.352;2023-04-26T08:17:03;10.90;99.90
28761;DHT22;15917;50.014;8.352;2023-04-26T08:19:29;10.80;99.90
28761;DHT22;15917;50.014;8.352;2023-04-26T08:21:57;10.80;99.90
28761;DHT22;15917;50.014;8.352;2023-04-26T08:24:23;10.90;99.90
28761;DHT22;15917;50.014;8.352;2023-04-26T08:26:48;11.10;99.90
28761;DHT22;15917;50.014;8.352;2023-04-26T08:29:14;11.10;99.90
28761;DHT22;15917;50.014;8.352;2023-04-26T08:31:41;11.40;99.90
28761;DHT22;15917;50.014;8.352;2023-04-26T08:34:07;11.80;99.90
28761;DHT22;15917;50.014;8.352;2023-04-26T08:36:36;12.00;99.90
28761;DHT22;15917;50.014;8.352;2023-04-26T08:39:02;12.10;99.90
28761;DHT22;15917;50.014;8.352;2023-04-26T08:41:30;12.10;99.90
28761;DHT22;15917;50.014;8.352;2023-04-26T08:43:59;12.20;99.90
28761;DHT22;15917;50.014;8.352;2023-04-26T08:46:46;12.10;99.90
28761;DHT22;15917;50.014;8.352;2023-04-26T08:49:41;11.90;99.90
28761;DHT22;15917;50.014;8.352;2023-04-26T08:52:14;11.80;99.90
28761;DHT22;15917;50.014;8.352;2023-04-26T08:54:42;11.70;99.90
28761;DHT22;15917;50.014;8.352;2023-04-26T08:57:09;11.50;99.90
28761;DHT22;15917;50.014;8.352;2023-04-26T08:59:36;11.20;99.90
28761;DHT22;15917;50.014;8.352;2023-04-26T09:02:04;11.40;99.90
28761;DHT22;15917;50.014;8.352;2023-04-26T09:04:30;11.50;99.90
28761;DHT22;15917;50.014;8.352;2023-04-26T09:06:59;11.70;99.90
28761;DHT22;15917;50.014;8.352;2023-04-26T09:09:27;11.70;99.90
28761;DHT22;15917;50.014;8.352;2023-04-26T09:11:57;11.70;99.90
28761;DHT22;15917;50.014;8.352;2023-04-26T09:14:24;11.80;99.90
28761;DHT22;15917;50.014;8.352;2023-04-26T09:16:51;11.80;99.90
28761;DHT22;15917;50.014;8.352;2023-04-26T09:19:17;12.20;99.90
28761;DHT22;15917;50.014;8.352;2023-04-26T09:21:58;12.30;99.90
28761;DHT22;15917;50.014;8.352;2023-04-26T09:24:24;12.50;99.90
28761;DHT22;15917;50.014;8.352;2023-04-26T09:27:00;12.50;99.90
28761;DHT22;15917;50.014;8.352;2023-04-26T09:29:27;12.50;99.90
28761;DHT22;15917;50.014;8.352;2023-04-26T09:31:53;12.40;99.90
28761;DHT22;15917;50.014;8.352;2023-04-26T09:34:18;11.70;99.90
28761;DHT22;15917;50.014;8.352;2023-04-26T09:36:54;11.60;99.90
28761;DHT22;15917;50.014;8.352;2023-04-26T09:39:33;11.80;99.90
28761;DHT22;15917;50.014;8.352;2023-04-26T09:41:59;11.90;99.90
28761;DHT22;15917;50.014;8.352;2023-04-26T09:44:25;12.00;99.90
28761;DHT22;15917;50.014;8.352;2023-04-26T09:47:07;12.10;99.90
28761;DHT22;15917;50.014;8.352;2023-04-26T09:49:45;12.20;99.90
28761;DHT22;15917;50.014;8.352;2023-04-26T09:52:14;12.20;99.90
28761;DHT22;15917;50.014;8.352;2023-04-26T09:57:11;12.20;99.90
28761;DHT22;15917;50.014;8.352;2023-04-26T09:59:41;12.20;99.90
28761;DHT22;15917;50.014;8.352;2023-04-26T10:02:20;12.20;99.90
28761;DHT22;15917;50.014;8.352;2023-04-26T10:04:54;12.30;99.90
28761;DHT22;15917;50.014;8.352;2023-04-26T10:07:22;12.20;99.90
28761;DHT22;15917;50.014;8.352;2023-04-26T10:09:49;12.30;99.90
28761;DHT22;15917;50.014;8.352;2023-04-26T10:12:16;12.20;99.90
28761;DHT22;15917;50.014;8.352;2023-04-26T10:14:43;12.30;99.90
28761;DHT22;15917;50.014;8.352;2023-04-26T10:17:09;12.20;99.90
28761;DHT22;15917;50.014;8.352;2023-04-26T10:19:37;12.20;99.90
28761;DHT22;15917;50.014;8.352;2023-04-26T10:22:11;12.40;99.90
28761;DHT22;15917;50.014;8.352;2023-04-26T10:24:39;12.60;99.90
28761;DHT22;15917;50.014;8.352;2023-04-26T10:27:05;12.70;99.90
28761;DHT22;15917;50.014;8.352;2023-04-26T10:32:18;12.50;99.90
28761;DHT22;15917;50.014;8.352;2023-04-26T10:34:44;12.40;99.90
28761;DHT22;15917;50.014;8.352;2023-04-26T10:37:30;12.40;99.90
28761;DHT22;15917;50.014;8.352;2023-04-26T10:40:25;12.40;99.90
28761;DHT22;15917;50.014;8.352;2023-04-26T10:45:46;12.30;99.90
28761;DHT22;15917;50.014;8.352;2023-04-26T10:48:29;12.60;99.90
28761;DHT22;15917;50.014;8.352;2023-04-26T11:01:35;13.40;98.70
28761;DHT22;15917;50.014;8.352;2023-04-26T11:04:09;13.40;99.30
28761;DHT22;15917;50.014;8.352;2023-04-26T11:06:54;13.50;98.30
28761;DHT22;15917;50.014;8.352;2023-04-26T11:12:14;13.40;98.90
28761;DHT22;15917;50.014;8.352;2023-04-26T11:14:41;13.50;99.90
28761;DHT22;15917;50.014;8.352;2023-04-26T11:17:10;13.90;99.10
28761;DHT22;15917;50.014;8.352;2023-04-26T11:19:36;13.90;98.90
28761;DHT22;15917;50.014;8.352;2023-04-26T11:22:05;13.80;98.80
28761;DHT22;15917;50.014;8.352;2023-04-26T11:24:32;14.20;98.20
28761;DHT22;15917;50.014;8.352;2023-04-26T11:26:58;14.60;98.20
28761;DHT22;15917;50.014;8.352;2023-04-26T11:29:24;15.00;97.90
28761;DHT22;15917;50.014;8.352;2023-04-26T11:31:52;15.00;96.00
28761;DHT22;15917;50.014;8.352;2023-04-26T11:34:37;14.60;95.40
28761;DHT22;15917;50.014;8.352;2023-04-26T11:37:06;14.00;96.60
28761;DHT22;15917;50.014;8.352;2023-04-26T11:39:35;14.10;97.50
28761;DHT22;15917;50.014;8.352;2023-04-26T11:42:09;14.30;96.30
28761;DHT22;15917;50.014;8.352;2023-04-26T11:44:36;14.90;96.70
28761;DHT22;15917;50.014;8.352;2023-04-26T11:47:02;15.00;95.00
28761;DHT22;15917;50.014;8.352;2023-04-26T11:49:29;15.10;94.70
28761;DHT22;15917;50.014;8.352;2023-04-26T11:51:56;15.30;93.60
28761;DHT22;15917;50.014;8.352;2023-04-26T11:54:29;15.50;92.30
28761;DHT22;15917;50.014;8.352;2023-04-26T11:56:56;15.20;92.10
28761;DHT22;15917;50.014;8.352;2023-04-26T11:59:29;15.40;92.20
28761;DHT22;15917;50.014;8.352;2023-04-26T12:01:58;15.70;92.90
28761;DHT22;15917;50.014;8.352;2023-04-26T12:04:27;15.90;89.20
28761;DHT22;15917;50.014;8.352;2023-04-26T12:06:57;16.20;90.70
28761;DHT22;15917;50.014;8.352;2023-04-26T12:09:23;16.20;87.40
28761;DHT22;15917;50.014;8.352;2023-04-26T12:11:55;16.00;90.10
28761;DHT22;15917;50.014;8.352;2023-04-26T12:14:29;15.80;89.90
28761;DHT22;15917;50.014;8.352;2023-04-26T12:16:55;15.80;90.00
28761;DHT22;15917;50.014;8.352;2023-04-26T12:19:23;15.70;87.50
28761;DHT22;15917;50.014;8.352;2023-04-26T12:21:48;15.60;85.50
28761;DHT22;15917;50.014;8.352;2023-04-26T12:24:27;15.50;86.10
28761;DHT22;15917;50.014;8.352;2023-04-26T12:27:05;15.50;88.20
28761;DHT22;15917;50.014;8.352;2023-04-26T12:29:31;15.50;91.00
28761;DHT22;15917;50.014;8.352;2023-04-26T12:31:58;15.40;91.70
28761;DHT22;15917;50.014;8.352;2023-04-26T12:34:24;15.10;92.00
28761;DHT22;15917;50.014;8.352;2023-04-26T12:36:50;14.90;91.90
28761;DHT22;15917;50.014;8.352;2023-04-26T12:39:16;14.80;91.50
28761;DHT22;15917;50.014;8.352;2023-04-26T12:41:42;14.70;92.50
28761;DHT22;15917;50.014;8.352;2023-04-26T12:44:10;14.70;92.00
28761;DHT22;15917;50.014;8.352;2023-04-26T12:46:36;14.80;92.70
28761;DHT22;15917;50.014;8.352;2023-04-26T12:49:02;14.80;92.40
28761;DHT22;15917;50.014;8.352;2023-04-26T12:51:28;14.90;91.90
28761;DHT22;15917;50.014;8.352;2023-04-26T12:53:54;15.00;92.80
28761;DHT22;15917;50.014;8.352;2023-04-26T12:56:20;15.10;92.80
28761;DHT22;15917;50.014;8.352;2023-04-26T12:58:47;15.30;91.90
28761;DHT22;15917;50.014;8.352;2023-04-26T13:01:14;15.50;92.50
28761;DHT22;15917;50.014;8.352;2023-04-26T13:03:40;15.80;90.50
28761;DHT22;15917;50.014;8.352;2023-04-26T13:06:06;15.80;91.10
28761;DHT22;15917;50.014;8.352;2023-04-26T13:08:32;15.80;90.70
28761;DHT22;15917;50.014;8.352;2023-04-26T13:10:57;15.80;90.70
28761;DHT22;15917;50.014;8.352;2023-04-26T13:13:24;15.80;90.50
28761;DHT22;15917;50.014;8.352;2023-04-26T13:15:49;16.00;91.70
28761;DHT22;15917;50.014;8.352;2023-04-26T13:18:15;16.20;89.90
28761;DHT22;15917;50.014;8.352;2023-04-26T13:20:42;16.40;90.20
28761;DHT22;15917;50.014;8.352;2023-04-26T13:23:08;16.80;90.00
28761;DHT22;15917;50.014;8.352;2023-04-26T13:25:35;17.00;89.30
28761;DHT22;15917;50.014;8.352;2023-04-26T13:28:01;16.80;88.20
28761;DHT22;15917;50.014;8.352;2023-04-26T13:30:27;16.80;88.20
28761;DHT22;15917;50.014;8.352;2023-04-26T13:32:53;16.40;88.00
28761;DHT22;15917;50.014;8.352;2023-04-26T13:35:18;16.40;87.50
28761;DHT22;15917;50.014;8.352;2023-04-26T13:37:44;15.90;86.90
28761;DHT22;15917;50.014;8.352;2023-04-26T13:40:10;15.80;90.10
28761;DHT22;15917;50.014;8.352;2023-04-26T13:42:37;15.70;88.20
28761;DHT22;15917;50.014;8.352;2023-04-26T13:45:03;15.60;88.90
28761;DHT22;15917;50.014;8.352;2023-04-26T13:47:33;15.40;90.10
28761;DHT22;15917;50.014;8.352;2023-04-26T13:49:59;15.10;90.00
28761;DHT22;15917;50.014;8.352;2023-04-26T13:52:25;15.20;90.20
28761;DHT22;15917;50.014;8.352;2023-04-26T13:54:51;15.20;90.40
28761;DHT22;15917;50.014;8.352;2023-04-26T13:57:17;15.30;89.80
28761;DHT22;15917;50.014;8.352;2023-04-26T13:59:44;15.30;89.50
28761;DHT22;15917;50.014;8.352;2023-04-26T14:02:10;15.60;88.90
28761;DHT22;15917;50.014;8.352;2023-04-26T14:04:36;15.50;88.00
28761;DHT22;15917;50.014;8.352;2023-04-26T14:07:02;15.40;90.00
28761;DHT22;15917;50.014;8.352;2023-04-26T14:09:28;15.30;89.10
28761;DHT22;15917;50.014;8.352;2023-04-26T14:11:53;15.30;90.30
28761;DHT22;15917;50.014;8.352;2023-04-26T14:14:19;15.00;89.10
28761;DHT22;15917;50.014;8.352;2023-04-26T14:16:44;15.00;90.80
28761;DHT22;15917;50.014;8.352;2023-04-26T14:19:10;15.20;90.50
28761;DHT22;15917;50.014;8.352;2023-04-26T14:21:36;15.10;89.50
28761;DHT22;15917;50.014;8.352;2023-04-26T14:24:02;15.20;90.60
28761;DHT22;15917;50.014;8.352;2023-04-26T14:26:27;15.30;91.20
28761;DHT22;15917;50.014;8.352;2023-04-26T14:28:53;15.40;91.00
28761;DHT22;15917;50.014;8.352;2023-04-26T14:31:19;15.50;90.40
28761;DHT22;15917;50.014;8.352;2023-04-26T14:33:44;15.40;90.50
28761;DHT22;15917;50.014;8.352;2023-04-26T14:36:10;15.20;90.50
28761;DHT22;15917;50.014;8.352;2023-04-26T14:38:40;15.20;90.80
28761;DHT22;15917;50.014;8.352;2023-04-26T14:41:06;15.10;90.30
28761;DHT22;15917;50.014;8.352;2023-04-26T14:43:31;15.10;89.00
28761;DHT22;15917;50.014;8.352;2023-04-26T14:45:58;15.20;90.20
28761;DHT22;15917;50.014;8.352;2023-04-26T14:48:23;15.20;89.00
28761;DHT22;15917;50.014;8.352;2023-04-26T14:50:49;15.00;88.80
28761;DHT22;15917;50.014;8.352;2023-04-26T14:53:21;14.90;90.20
28761;DHT22;15917;50.014;8.352;2023-04-26T14:55:53;14.90;90.90
28761;DHT22;15917;50.014;8.352;2023-04-26T14:58:19;15.00;89.50
28761;DHT22;15917;50.014;8.352;2023-04-26T15:00:45;15.00;89.90
28761;DHT22;15917;50.014;8.352;2023-04-26T15:03:10;15.20;88.60
28761;DHT22;15917;50.014;8.352;2023-04-26T15:05:36;15.30;88.60
28761;DHT22;15917;50.014;8.352;2023-04-26T15:08:01;15.10;88.50
28761;DHT22;15917;50.014;8.352;2023-04-26T15:10:28;15.30;88.80
28761;DHT22;15917;50.014;8.352;2023-04-26T15:12:53;15.40;89.30
28761;DHT22;15917;50.014;8.352;2023-04-26T15:15:20;15.70;87.90
28761;DHT22;15917;50.014;8.352;2023-04-26T15:17:47;15.60;88.40
28761;DHT22;15917;50.014;8.352;2023-04-26T15:20:13;15.60;87.30
28761;DHT22;15917;50.014;8.352;2023-04-26T15:22:39;15.80;89.10
28761;DHT22;15917;50.014;8.352;2023-04-26T15:25:05;16.20;89.10
28761;DHT22;15917;50.014;8.352;2023-04-26T15:27:35;16.50;87.20
28761;DHT22;15917;50.014;8.352;2023-04-26T15:30:04;16.60;86.90
28761;DHT22;15917;50.014;8.352;2023-04-26T15:32:30;16.50;85.00
28761;DHT22;15917;50.014;8.352;2023-04-26T15:34:56;16.30;85.40
28761;DHT22;15917;50.014;8.352;2023-04-26T15:37:22;16.20;85.60
28761;DHT22;15917;50.014;8.352;2023-04-26T15:39:47;16.40;84.80
28761;DHT22;15917;50.014;8.352;2023-04-26T15:42:13;16.60;93.60
28761;DHT22;15917;50.014;8.352;2023-04-26T15:44:39;16.40;84.30
28761;DHT22;15917;50.014;8.352;2023-04-26T15:47:05;15.80;85.30
28761;DHT22;15917;50.014;8.352;2023-04-26T15:49:31;15.70;86.70
28761;DHT22;15917;50.014;8.352;2023-04-26T15:51:57;15.70;86.70
28761;DHT22;15917;50.014;8.352;2023-04-26T15:54:22;15.80;85.60
28761;DHT22;15917;50.014;8.352;2023-04-26T15:56:48;16.00;86.40
28761;DHT22;15917;50.014;8.352;2023-04-26T15:59:14;16.00;87.30